Hauptseite
METAR-TAF:

METAR-TAF

Flughäfen :

Flughafen Paris-Orly

Paris-Orly, Frankreich

Breite: 48-44N, Länge: 002-24E, Höhe: 89 m

Beobachtung

Neuester Wetterbericht von vor 18 Minuten, um 04:00 UTC
Wind 6 kt aus Nord/Nordost
Temperatur -2°C
Luftfeuchtigkeit 86%
Luftdruck 1022 hPa
Sichtweite: 9000 m

METAR: LFPO 210400Z 02006KT 9000 NSC M02/M04 Q1022 NOSIG

Zeit: 05:18 (04:18 UTC)

Prognose

Neuester Wetterbericht von vor 5 Stunden und 18 Minuten, um 23:00 UTC
Gültige Prognose vom 21 um 00 UTC bis 22 um 06 UTC
Wind 5 kt aus Nord
Sichtweite 10 km oder mehr
keine Wolken unter 1500 m und keine Kumulonimbus oder Gewitterwolken
Übergehend zu
vom 21 um 22 UTC bis 22 um 01 UTC
Wind 10 kt aus Süd
Übergehend zu
vom 22 um 05 UTC bis 22 um 06 UTC
Durchbrochene Bewölkung in der Höhe von 1200 ft

TAF: LFPO 202300Z 2100/2206 01005KT CAVOK BECMG 2122/2201 18010KT BECMG 2205/2206 BKN012

Wetterbeobachtungen und Prognosen von mehr als 4000 Flughäfen (METAR und TAF Bericht).

Die verfügbaren Stationen werden durch gelbe und rote Markierungen auf der Karte dargestellt.

Führen Sie die Maus auf sie, um den Namen der Station zu sehen.

Darauf klicken, um die Beobachtung von Wetterbeobachtungen und Prognosen zu sehen.

Um die Karte zu ändern : klicken Sie auf den grünen Tasten mit einem schwarzen Kreuz Zum Vergrößern, auf den grünen Button mit einem Gedankenstrich zu verkleinern, oder auf die grünen Pfeile für benachbarte Karten.


METAR-TAF: